createdAt,value
2016-10-18T00:00:56.839Z,1021.74
2016-10-18T00:01:56.861Z,1021.75
2016-10-18T00:02:56.878Z,1021.76
2016-10-18T00:03:56.902Z,1021.73
2016-10-18T00:04:56.922Z,1021.7
2016-10-18T00:05:56.937Z,1021.72
2016-10-18T00:06:56.961Z,1021.73
2016-10-18T00:07:56.975Z,1021.7
2016-10-18T00:08:57.000Z,1021.75
2016-10-18T00:09:57.019Z,1021.71
2016-10-18T00:10:57.043Z,1021.73
2016-10-18T00:11:57.057Z,1021.73
2016-10-18T00:12:57.081Z,1021.71
2016-10-18T00:13:57.096Z,1021.73
2016-10-18T00:14:57.110Z,1021.7
2016-10-18T00:15:57.132Z,1021.68
2016-10-18T00:16:57.162Z,1021.67
2016-10-18T00:17:57.176Z,1021.67
2016-10-18T00:18:57.191Z,1021.76
2016-10-18T00:19:57.214Z,1021.77
2016-10-18T00:20:57.235Z,1021.76
2016-10-18T00:21:57.253Z,1021.74
2016-10-18T00:22:57.273Z,1021.81
2016-10-18T00:23:57.291Z,1021.77
2016-10-18T00:24:57.314Z,1021.78
2016-10-18T00:25:57.331Z,1021.77
2016-10-18T00:26:57.352Z,1021.8
2016-10-18T00:27:57.374Z,1021.78
2016-10-18T00:28:57.391Z,1021.8
2016-10-18T00:29:57.410Z,1021.82
2016-10-18T00:30:57.431Z,1021.82
2016-10-18T00:31:57.451Z,1021.86
2016-10-18T00:32:57.473Z,1021.89
2016-10-18T00:33:57.491Z,1021.88
2016-10-18T00:34:57.515Z,1021.88
2016-10-18T00:35:57.530Z,1021.92
2016-10-18T00:36:57.646Z,1021.91
2016-10-18T00:37:57.568Z,1021.93
2016-10-18T00:38:57.589Z,1021.93
2016-10-18T00:39:57.607Z,1021.95
2016-10-18T00:40:57.622Z,1021.96
2016-10-18T00:41:57.645Z,1021.94
2016-10-18T00:42:57.661Z,1021.96
2016-10-18T00:43:57.689Z,1021.97
2016-10-18T00:44:57.705Z,1021.96
2016-10-18T00:45:57.724Z,1021.92
2016-10-18T00:46:57.742Z,1021.95
2016-10-18T00:47:57.772Z,1021.95
2016-10-18T00:48:57.780Z,1021.94
2016-10-18T00:49:57.806Z,1021.94
2016-10-18T00:50:57.819Z,1021.94
2016-10-18T00:51:57.890Z,1021.96
2016-10-18T00:52:57.858Z,1021.98
2016-10-18T00:53:57.883Z,1021.95
2016-10-18T00:54:57.896Z,1021.94
2016-10-18T00:55:57.925Z,1021.96
2016-10-18T00:56:57.943Z,1021.94
2016-10-18T00:57:57.965Z,1021.96
2016-10-18T00:58:57.979Z,1021.97
2016-10-18T00:59:57.994Z,1021.96
2016-10-18T01:00:58.021Z,1021.95
2016-10-18T01:01:58.034Z,1021.97
2016-10-18T01:02:58.054Z,1021.95
2016-10-18T01:03:58.075Z,1021.96
2016-10-18T01:04:58.144Z,1021.99
2016-10-18T01:05:58.118Z,1021.96
2016-10-18T01:06:58.137Z,1021.96
2016-10-18T01:07:58.152Z,1021.98
2016-10-18T01:08:58.173Z,1021.96
2016-10-18T01:09:58.197Z,1021.97
2016-10-18T01:10:58.213Z,1021.94
2016-10-18T01:11:58.233Z,1021.94
2016-10-18T01:12:58.246Z,1021.97
2016-10-18T01:13:58.274Z,1021.94
2016-10-18T01:14:58.286Z,1021.96
2016-10-18T01:15:58.314Z,1021.94
2016-10-18T01:16:58.327Z,1021.91
2016-10-18T01:17:58.349Z,1021.93
2016-10-18T01:18:58.366Z,1021.89
2016-10-18T01:19:58.387Z,1021.88
2016-10-18T01:20:58.401Z,1021.85
2016-10-18T01:21:58.427Z,1021.87
2016-10-18T01:22:58.445Z,1021.86
2016-10-18T01:23:58.459Z,1021.87
2016-10-18T01:24:58.481Z,1021.86
2016-10-18T01:25:58.499Z,1021.86
2016-10-18T01:26:58.526Z,1021.83
2016-10-18T01:27:58.539Z,1021.86
2016-10-18T01:28:58.555Z,1021.87
2016-10-18T01:29:58.579Z,1021.81
2016-10-18T01:30:58.598Z,1021.81
2016-10-18T01:31:58.620Z,1021.78
2016-10-18T01:32:58.636Z,1021.78
2016-10-18T01:33:58.660Z,1021.77
2016-10-18T01:34:58.676Z,1021.76
2016-10-18T01:35:58.698Z,1021.79
2016-10-18T01:36:58.718Z,1021.79
2016-10-18T01:37:58.740Z,1021.78
2016-10-18T01:38:58.759Z,1021.72
2016-10-18T01:39:58.777Z,1021.77
2016-10-18T01:40:58.797Z,1021.79
2016-10-18T01:41:58.818Z,1021.79
2016-10-18T01:42:58.834Z,1021.79
2016-10-18T01:43:58.859Z,1021.79
2016-10-18T01:44:58.876Z,1021.8
2016-10-18T01:45:58.891Z,1021.79
2016-10-18T01:46:58.920Z,1021.77
2016-10-18T01:47:58.933Z,1021.79
2016-10-18T01:48:58.959Z,1021.76
2016-10-18T01:49:58.967Z,1021.8
2016-10-18T01:50:58.989Z,1021.73
2016-10-18T01:51:59.004Z,1021.74
2016-10-18T01:52:59.023Z,1021.77
2016-10-18T01:53:59.073Z,1021.76
2016-10-18T01:54:59.067Z,1021.71
2016-10-18T01:55:59.085Z,1021.73
2016-10-18T01:56:59.111Z,1021.71
2016-10-18T01:57:59.129Z,1021.76
2016-10-18T01:58:59.146Z,1021.75
2016-10-18T01:59:59.164Z,1021.77
2016-10-18T02:00:59.182Z,1021.81
2016-10-18T02:01:59.202Z,1021.76
2016-10-18T02:02:59.223Z,1021.73
2016-10-18T02:03:59.242Z,1021.71
2016-10-18T02:04:59.256Z,1021.67
2016-10-18T02:05:59.281Z,1021.67
2016-10-18T02:06:59.296Z,1021.7
2016-10-18T02:07:59.321Z,1021.7
2016-10-18T02:08:59.342Z,1021.64
2016-10-18T02:09:59.356Z,1021.65
2016-10-18T02:10:59.376Z,1021.66
2016-10-18T02:11:59.397Z,1021.6
2016-10-18T02:12:59.426Z,1021.62
2016-10-18T02:13:59.434Z,1021.59
2016-10-18T02:14:59.458Z,1021.59
2016-10-18T02:15:59.478Z,1021.6
2016-10-18T02:16:59.503Z,1021.58
2016-10-18T02:17:59.518Z,1021.62
2016-10-18T02:18:59.584Z,1021.6
2016-10-18T02:19:59.552Z,1021.63
2016-10-18T02:20:59.574Z,1021.64
2016-10-18T02:21:59.591Z,1021.65
2016-10-18T02:22:59.612Z,1021.62
2016-10-18T02:23:59.633Z,1021.64
2016-10-18T02:24:59.656Z,1021.63
2016-10-18T02:25:59.668Z,1021.62
2016-10-18T02:26:59.689Z,1021.57
2016-10-18T02:27:59.710Z,1021.59
2016-10-18T02:28:59.729Z,1021.58
2016-10-18T02:29:59.884Z,1021.55
2016-10-18T02:30:59.766Z,1021.53
2016-10-18T02:31:59.787Z,1021.53
2016-10-18T02:32:59.804Z,1021.5
2016-10-18T02:33:59.827Z,1021.57
2016-10-18T02:34:59.851Z,1021.53
2016-10-18T02:35:59.865Z,1021.56
2016-10-18T02:36:59.889Z,1021.55
2016-10-18T02:37:59.902Z,1021.57
2016-10-18T02:38:59.924Z,1021.54
2016-10-18T02:39:59.948Z,1021.56
2016-10-18T02:40:59.964Z,1021.55
2016-10-18T02:41:59.977Z,1021.54
2016-10-18T02:43:00.003Z,1021.53
2016-10-18T02:44:00.019Z,1021.54
2016-10-18T02:45:00.041Z,1021.53
2016-10-18T02:46:00.059Z,1021.52
2016-10-18T02:47:00.086Z,1021.53
2016-10-18T02:48:00.101Z,1021.5
2016-10-18T02:49:00.123Z,1021.54
2016-10-18T02:50:00.136Z,1021.5
2016-10-18T02:51:00.159Z,1021.47
2016-10-18T02:52:00.174Z,1021.41
2016-10-18T02:53:00.198Z,1021.42
2016-10-18T02:54:00.221Z,1021.42
2016-10-18T02:55:00.228Z,1021.42
2016-10-18T02:56:00.251Z,1021.43
2016-10-18T02:57:00.270Z,1021.38
2016-10-18T02:58:00.337Z,1021.39
2016-10-18T02:59:00.310Z,1021.4
2016-10-18T03:00:00.328Z,1021.38
2016-10-18T03:01:00.347Z,1021.39
2016-10-18T03:02:00.371Z,1021.36
2016-10-18T03:03:00.388Z,1021.33
2016-10-18T03:04:00.401Z,1021.32
2016-10-18T03:05:00.431Z,1021.32
2016-10-18T03:06:00.443Z,1021.31
2016-10-18T03:07:00.463Z,1021.3
2016-10-18T03:08:00.491Z,1021.29
2016-10-18T03:09:00.499Z,1021.23
2016-10-18T03:10:00.523Z,1021.23
2016-10-18T03:11:00.539Z,1021.23
2016-10-18T03:12:00.556Z,1021.19
2016-10-18T03:13:00.588Z,1021.2
2016-10-18T03:14:00.597Z,1021.21
2016-10-18T03:15:00.619Z,1021.19
2016-10-18T03:16:00.640Z,1021.2
2016-10-18T03:17:00.659Z,1021.22
2016-10-18T03:18:00.672Z,1021.17
2016-10-18T03:19:00.689Z,1021.18
2016-10-18T03:20:00.708Z,1021.16
2016-10-18T03:21:00.726Z,1021.2
2016-10-18T03:22:00.751Z,1021.21
2016-10-18T03:23:00.770Z,1021.2
2016-10-18T03:24:00.784Z,1021.21
2016-10-18T03:25:00.800Z,1021.17
2016-10-18T03:26:00.820Z,1021.14
2016-10-18T03:27:00.840Z,1021.13
2016-10-18T03:28:00.862Z,1021.15
2016-10-18T03:29:00.882Z,1021.09
2016-10-18T03:30:00.901Z,1021.13
2016-10-18T03:31:00.915Z,1021.12
2016-10-18T03:32:00.943Z,1021.16
2016-10-18T03:33:00.960Z,1021.19
2016-10-18T03:34:00.979Z,1021.23
2016-10-18T03:35:00.994Z,1021.26
2016-10-18T03:36:01.011Z,1021.27
2016-10-18T03:37:01.027Z,1021.26
2016-10-18T03:38:01.049Z,1021.26
2016-10-18T03:39:01.070Z,1021.3
2016-10-18T03:40:01.085Z,1021.28
2016-10-18T03:41:01.109Z,1021.3
2016-10-18T03:42:01.126Z,1021.31
2016-10-18T03:43:01.150Z,1021.28
2016-10-18T03:44:01.160Z,1021.29
2016-10-18T03:45:01.181Z,1021.28
2016-10-18T03:46:01.195Z,1021.29
2016-10-18T03:47:01.214Z,1021.3
2016-10-18T03:48:01.235Z,1021.28
2016-10-18T03:49:01.252Z,1021.27
2016-10-18T03:50:01.279Z,1021.29
2016-10-18T03:51:01.291Z,1021.29
2016-10-18T03:52:01.311Z,1021.27
2016-10-18T03:53:01.328Z,1021.29
2016-10-18T03:54:01.351Z,1021.25
2016-10-18T03:55:01.367Z,1021.24
2016-10-18T03:56:01.390Z,1021.23
2016-10-18T03:57:01.403Z,1021.22
2016-10-18T03:58:01.422Z,1021.19
2016-10-18T03:59:01.449Z,1021.17
2016-10-18T04:00:01.460Z,1021.19
2016-10-18T04:01:01.475Z,1021.15
2016-10-18T04:02:01.488Z,1021.15
2016-10-18T04:03:01.509Z,1021.11
2016-10-18T04:04:01.528Z,1021.15
2016-10-18T04:05:01.547Z,1021.14
2016-10-18T04:06:01.565Z,1021.14
2016-10-18T04:07:01.589Z,1021.13
2016-10-18T04:08:01.603Z,1021.13
2016-10-18T04:09:01.618Z,1021.11
2016-10-18T04:10:01.642Z,1021.1
2016-10-18T04:11:01.659Z,1021.09
2016-10-18T04:12:01.696Z,1021.04
2016-10-18T04:13:01.690Z,1021.08
2016-10-18T04:14:01.813Z,1021
2016-10-18T04:15:01.730Z,1021.02
2016-10-18T04:16:01.748Z,1021.02
2016-10-18T04:17:01.769Z,1020.99
2016-10-18T04:18:01.786Z,1021
2016-10-18T04:19:01.805Z,1020.98
2016-10-18T04:20:01.830Z,1021
2016-10-18T04:21:01.840Z,1021.03
2016-10-18T04:22:01.859Z,1021.03
2016-10-18T04:23:01.878Z,1021.04
2016-10-18T04:24:01.894Z,1021.06
2016-10-18T04:25:02.089Z,1021.09
2016-10-18T04:26:01.939Z,1021.09
2016-10-18T04:27:01.958Z,1021.07
2016-10-18T04:28:01.966Z,1021.07
2016-10-18T04:29:01.990Z,1021.09
2016-10-18T04:30:02.012Z,1021.09
2016-10-18T04:31:02.025Z,1021.1
2016-10-18T04:32:02.043Z,1021.08
2016-10-18T04:33:02.078Z,1021.05
2016-10-18T04:34:02.086Z,1021.05
2016-10-18T04:35:02.104Z,1021.06
2016-10-18T04:36:02.521Z,1021.07
2016-10-18T04:37:02.387Z,1021.08
2016-10-18T04:38:02.514Z,1021.05
2016-10-18T04:39:02.378Z,1021.07
2016-10-18T04:40:02.542Z,1021.08
2016-10-18T04:41:02.362Z,1021.02
2016-10-18T04:42:02.587Z,1021.01
2016-10-18T04:43:02.347Z,1021
2016-10-18T04:44:02.478Z,1021.05
2016-10-18T04:45:02.390Z,1020.98
2016-10-18T04:46:02.509Z,1021.03
2016-10-18T04:47:02.429Z,1021.01
2016-10-18T04:48:02.446Z,1020.98
2016-10-18T04:49:02.465Z,1020.97
2016-10-18T04:50:02.438Z,1020.93
2016-10-18T04:51:02.460Z,1020.92
2016-10-18T04:52:02.468Z,1020.92
2016-10-18T04:53:02.589Z,1020.91
2016-10-18T04:54:02.509Z,1020.91
2016-10-18T04:55:02.623Z,1020.91
2016-10-18T04:56:02.496Z,1020.93
2016-10-18T04:57:02.666Z,1020.89
2016-10-18T04:58:02.529Z,1020.89
2016-10-18T04:59:02.696Z,1020.89
2016-10-18T05:00:02.575Z,1020.84
2016-10-18T05:01:02.735Z,1020.84
2016-10-18T05:02:02.603Z,1020.86
2016-10-18T05:03:02.626Z,1020.86
2016-10-18T05:04:02.640Z,1020.86
2016-10-18T05:05:02.658Z,1020.84
2016-10-18T05:06:02.671Z,1020.83
2016-10-18T05:07:02.700Z,1020.84
2016-10-18T05:08:02.723Z,1020.83
2016-10-18T05:09:02.730Z,1020.81
2016-10-18T05:10:02.749Z,1020.8
2016-10-18T05:11:02.770Z,1020.8
2016-10-18T05:12:02.792Z,1020.78
2016-10-18T05:13:02.800Z,1020.78
2016-10-18T05:14:02.824Z,1020.76
2016-10-18T05:15:02.850Z,1020.78
2016-10-18T05:16:02.864Z,1020.76
2016-10-18T05:17:02.881Z,1020.79
2016-10-18T05:18:02.897Z,1020.76
2016-10-18T05:19:02.915Z,1020.81
2016-10-18T05:20:02.929Z,1020.75
2016-10-18T05:21:02.951Z,1020.75
2016-10-18T05:22:02.968Z,1020.74
2016-10-18T05:23:02.993Z,1020.74
2016-10-18T05:24:03.005Z,1020.75
2016-10-18T05:25:03.020Z,1020.75
2016-10-18T05:26:03.042Z,1020.75
2016-10-18T05:27:03.061Z,1020.75
2016-10-18T05:28:03.080Z,1020.76
2016-10-18T05:29:03.101Z,1020.75
2016-10-18T05:30:03.123Z,1020.75
2016-10-18T05:31:03.141Z,1020.73
2016-10-18T05:32:03.151Z,1020.74
2016-10-18T05:33:03.172Z,1020.71
2016-10-18T05:34:03.190Z,1020.76
2016-10-18T05:35:03.212Z,1020.71
2016-10-18T05:36:03.221Z,1020.75
2016-10-18T05:37:03.242Z,1020.73
2016-10-18T05:38:03.260Z,1020.69
2016-10-18T05:39:03.284Z,1020.67
2016-10-18T05:40:03.308Z,1020.65
2016-10-18T05:41:03.319Z,1020.65
2016-10-18T05:42:03.337Z,1020.66
2016-10-18T05:43:03.360Z,1020.63
2016-10-18T05:44:03.372Z,1020.66
2016-10-18T05:45:03.392Z,1020.66
2016-10-18T05:46:03.410Z,1020.65
2016-10-18T05:47:03.430Z,1020.65
2016-10-18T05:48:03.442Z,1020.62
2016-10-18T05:49:03.461Z,1020.6
2016-10-18T05:50:03.481Z,1020.61
2016-10-18T05:51:03.500Z,1020.57
2016-10-18T05:52:03.516Z,1020.52
2016-10-18T05:53:03.535Z,1020.55
2016-10-18T05:54:03.561Z,1020.54
2016-10-18T05:55:03.570Z,1020.56
2016-10-18T05:56:03.594Z,1020.59
2016-10-18T05:57:03.611Z,1020.57
2016-10-18T05:58:03.681Z,1020.59
2016-10-18T05:59:03.642Z,1020.65
2016-10-18T06:00:03.661Z,1020.63
2016-10-18T06:01:03.676Z,1020.6
2016-10-18T06:02:03.705Z,1020.62
2016-10-18T06:03:03.714Z,1020.58
2016-10-18T06:04:03.734Z,1020.6
2016-10-18T06:05:03.751Z,1020.61
2016-10-18T06:06:03.774Z,1020.62
2016-10-18T06:07:03.792Z,1020.64
2016-10-18T06:08:03.809Z,1020.64
2016-10-18T06:09:03.832Z,1020.66
2016-10-18T06:10:03.838Z,1020.66
2016-10-18T06:11:03.922Z,1020.69
2016-10-18T06:12:03.881Z,1020.68
2016-10-18T06:13:03.903Z,1020.73
2016-10-18T06:14:03.911Z,1020.73
2016-10-18T06:15:03.938Z,1020.75
2016-10-18T06:16:03.954Z,1020.77
2016-10-18T06:17:03.971Z,1020.72
2016-10-18T06:18:03.985Z,1020.72
2016-10-18T06:19:04.003Z,1020.73
2016-10-18T06:20:04.022Z,1020.71
2016-10-18T06:21:04.041Z,1020.71
2016-10-18T06:22:04.063Z,1020.72
2016-10-18T06:23:04.081Z,1020.72
2016-10-18T06:24:04.241Z,1020.72
2016-10-18T06:25:04.116Z,1020.68
2016-10-18T06:26:04.150Z,1020.69
2016-10-18T06:27:04.153Z,1020.69
2016-10-18T06:28:04.165Z,1020.67
2016-10-18T06:29:04.252Z,1020.72
2016-10-18T06:30:04.202Z,1020.68
2016-10-18T06:31:04.221Z,1020.66
2016-10-18T06:32:04.242Z,1020.69
2016-10-18T06:33:04.254Z,1020.67
2016-10-18T06:34:04.275Z,1020.64
2016-10-18T06:35:04.299Z,1020.69
2016-10-18T06:36:04.312Z,1020.67
2016-10-18T06:37:04.409Z,1020.71
2016-10-18T06:38:04.353Z,1020.76
2016-10-18T06:39:04.467Z,1020.75
2016-10-18T06:40:04.387Z,1020.75
2016-10-18T06:41:04.405Z,1020.72
2016-10-18T06:42:04.422Z,1020.71
2016-10-18T06:43:04.441Z,1020.67
2016-10-18T06:44:04.454Z,1020.65
2016-10-18T06:45:04.474Z,1020.66
2016-10-18T06:46:04.495Z,1020.64
2016-10-18T06:47:04.509Z,1020.63
2016-10-18T06:48:04.531Z,1020.6
2016-10-18T06:49:04.557Z,1020.61
2016-10-18T06:50:04.571Z,1020.59
2016-10-18T06:51:04.583Z,1020.6
2016-10-18T06:52:04.651Z,1020.61
2016-10-18T06:53:04.624Z,1020.6
2016-10-18T06:54:04.688Z,1020.6
2016-10-18T06:55:04.654Z,1020.64
2016-10-18T06:56:04.679Z,1020.63
2016-10-18T06:57:04.704Z,1020.63
2016-10-18T06:58:04.711Z,1020.62
2016-10-18T06:59:04.733Z,1020.61
2016-10-18T07:00:04.752Z,1020.62
2016-10-18T07:01:04.770Z,1020.6
2016-10-18T07:02:04.788Z,1020.64
2016-10-18T07:03:04.800Z,1020.66
2016-10-18T07:04:04.821Z,1020.63
2016-10-18T07:05:04.836Z,1020.61
2016-10-18T07:06:04.863Z,1020.63
2016-10-18T07:07:04.879Z,1020.59
2016-10-18T07:08:04.895Z,1020.62
2016-10-18T07:09:04.916Z,1020.59
2016-10-18T07:10:04.934Z,1020.63
2016-10-18T07:11:04.948Z,1020.61
2016-10-18T07:12:04.978Z,1020.61
2016-10-18T07:13:04.992Z,1020.63
2016-10-18T07:14:05.007Z,1020.65
2016-10-18T07:15:05.028Z,1020.65
2016-10-18T07:16:05.046Z,1020.68
2016-10-18T07:17:05.071Z,1020.65
2016-10-18T07:18:05.085Z,1020.6
2016-10-18T07:19:05.101Z,1020.63
2016-10-18T07:20:05.117Z,1020.63
2016-10-18T07:21:05.138Z,1020.63
2016-10-18T07:22:05.158Z,1020.6
2016-10-18T07:23:05.188Z,1020.6
2016-10-18T07:24:05.198Z,1020.6
2016-10-18T07:25:05.213Z,1020.62
2016-10-18T07:26:05.235Z,1020.57
2016-10-18T07:27:05.252Z,1020.61
2016-10-18T07:28:05.272Z,1020.64
2016-10-18T07:29:05.304Z,1020.62
2016-10-18T07:30:05.315Z,1020.58
2016-10-18T07:31:05.332Z,1020.57
2016-10-18T07:32:05.352Z,1020.58
2016-10-18T07:33:05.370Z,1020.55
2016-10-18T07:34:05.387Z,1020.58
2016-10-18T07:35:05.407Z,1020.58
2016-10-18T07:36:05.428Z,1020.57
2016-10-18T07:37:05.447Z,1020.57
2016-10-18T07:38:05.460Z,1020.6
2016-10-18T07:39:05.481Z,1020.57
2016-10-18T07:40:05.503Z,1020.56
2016-10-18T07:41:05.521Z,1020.54
2016-10-18T07:42:05.541Z,1020.55
2016-10-18T07:43:05.560Z,1020.51
2016-10-18T07:44:05.592Z,1020.57
2016-10-18T07:45:05.602Z,1020.6
2016-10-18T07:46:05.623Z,1020.58
2016-10-18T07:47:05.638Z,1020.58
2016-10-18T07:48:05.661Z,1020.59
2016-10-18T07:49:05.681Z,1020.61
2016-10-18T07:50:05.696Z,1020.62
2016-10-18T07:51:05.719Z,1020.61
2016-10-18T07:52:05.734Z,1020.63
2016-10-18T07:53:05.759Z,1020.59
2016-10-18T07:54:05.771Z,1020.59
2016-10-18T07:55:05.854Z,1020.62
2016-10-18T07:56:05.809Z,1020.6
2016-10-18T07:57:05.833Z,1020.63
2016-10-18T07:58:05.854Z,1020.53
2016-10-18T07:59:05.872Z,1020.52
2016-10-18T08:00:05.897Z,1020.51
2016-10-18T08:01:05.914Z,1020.48
2016-10-18T08:02:05.932Z,1020.46
2016-10-18T08:03:05.952Z,1020.47
2016-10-18T08:04:05.969Z,1020.47
2016-10-18T08:05:05.990Z,1020.49
2016-10-18T08:06:06.122Z,1020.44
2016-10-18T08:07:06.038Z,1020.48
2016-10-18T08:08:06.044Z,1020.48
2016-10-18T08:09:06.067Z,1020.46
2016-10-18T08:10:06.082Z,1020.45
2016-10-18T08:11:06.102Z,1020.45
2016-10-18T08:12:06.134Z,1020.47
2016-10-18T08:13:06.147Z,1020.4
2016-10-18T08:14:06.160Z,1020.42
2016-10-18T08:15:06.182Z,1020.41
2016-10-18T08:16:06.202Z,1020.39
2016-10-18T08:17:06.221Z,1020.35
2016-10-18T08:18:06.241Z,1020.36
2016-10-18T08:19:06.262Z,1020.4
2016-10-18T08:20:06.283Z,1020.45
2016-10-18T08:21:06.304Z,1020.42
2016-10-18T08:22:06.320Z,1020.45
2016-10-18T08:23:06.344Z,1020.48
2016-10-18T08:24:06.360Z,1020.47
2016-10-18T08:25:06.381Z,1020.49
2016-10-18T08:26:06.402Z,1020.44
2016-10-18T08:27:06.424Z,1020.47
2016-10-18T08:28:06.450Z,1020.46
2016-10-18T08:29:06.456Z,1020.42
2016-10-18T08:30:06.479Z,1020.45
2016-10-18T08:31:06.506Z,1020.46
2016-10-18T08:32:06.546Z,1020.46
2016-10-18T08:33:06.533Z,1020.5
2016-10-18T08:34:06.608Z,1020.52
2016-10-18T08:35:06.571Z,1020.5
2016-10-18T08:36:06.594Z,1020.54
2016-10-18T08:37:06.612Z,1020.53
2016-10-18T08:38:06.641Z,1020.52
2016-10-18T08:39:06.650Z,1020.51
2016-10-18T08:40:06.671Z,1020.53
2016-10-18T08:41:06.700Z,1020.49
2016-10-18T08:42:06.716Z,1020.5
2016-10-18T08:43:06.731Z,1020.5
2016-10-18T08:44:06.757Z,1020.48
2016-10-18T08:45:06.771Z,1020.45
2016-10-18T08:46:06.793Z,1020.44
2016-10-18T08:47:06.815Z,1020.4
2016-10-18T08:48:06.835Z,1020.4
2016-10-18T08:49:06.851Z,1020.39
2016-10-18T08:50:06.871Z,1020.37
2016-10-18T08:51:06.902Z,1020.36
2016-10-18T08:52:06.919Z,1020.4
2016-10-18T08:53:06.931Z,1020.35
2016-10-18T08:54:06.955Z,1020.33
2016-10-18T08:55:06.972Z,1020.37
2016-10-18T08:56:07.002Z,1020.36
2016-10-18T08:57:07.024Z,1020.37
2016-10-18T08:58:07.043Z,1020.36
2016-10-18T08:59:07.060Z,1020.39
2016-10-18T09:00:07.079Z,1020.45
2016-10-18T09:01:07.100Z,1020.41
2016-10-18T09:02:07.123Z,1020.4
2016-10-18T09:03:07.142Z,1020.46
2016-10-18T09:04:07.161Z,1020.4
2016-10-18T09:05:07.171Z,1020.39
2016-10-18T09:06:07.197Z,1020.38
2016-10-18T09:07:07.243Z,1020.39
2016-10-18T09:08:07.239Z,1020.38
2016-10-18T09:09:07.285Z,1020.32
2016-10-18T09:10:07.283Z,1020.31
2016-10-18T09:11:07.301Z,1020.29
2016-10-18T09:12:07.325Z,1020.26
2016-10-18T09:13:07.334Z,1020.3
2016-10-18T09:14:07.356Z,1020.29
2016-10-18T09:15:07.379Z,1020.24
2016-10-18T09:16:07.395Z,1020.26
2016-10-18T09:17:07.423Z,1020.26
2016-10-18T09:18:07.451Z,1020.26
2016-10-18T09:19:07.462Z,1020.26
2016-10-18T09:20:07.480Z,1020.24
2016-10-18T09:21:07.501Z,1020.26
2016-10-18T09:22:07.519Z,1020.25
2016-10-18T09:23:07.541Z,1020.25
2016-10-18T09:24:07.560Z,1020.26
2016-10-18T09:25:07.586Z,1020.24
2016-10-18T09:26:07.612Z,1020.22
2016-10-18T09:27:07.631Z,1020.19
2016-10-18T09:28:07.657Z,1020.21
2016-10-18T09:29:07.675Z,1020.17
2016-10-18T09:30:07.700Z,1020.18
2016-10-18T09:31:07.721Z,1020.13
2016-10-18T09:32:07.732Z,1020.14
2016-10-18T09:33:07.751Z,1020.08
2016-10-18T09:34:07.771Z,1020.07
2016-10-18T09:35:07.841Z,1020.03
2016-10-18T09:36:07.812Z,1020.05
2016-10-18T09:37:07.834Z,1020.05
2016-10-18T09:38:07.849Z,1020.06
2016-10-18T09:39:07.876Z,1020.07
2016-10-18T09:40:07.901Z,1020.09
2016-10-18T09:41:07.921Z,1020.09
2016-10-18T09:42:07.934Z,1020.02
2016-10-18T09:43:07.955Z,1020.03
2016-10-18T09:44:07.980Z,1020.04
2016-10-18T09:45:08.005Z,1020.04
2016-10-18T09:46:08.018Z,1020.03
2016-10-18T09:47:08.043Z,1020.03
2016-10-18T09:48:08.114Z,1020.04
2016-10-18T09:49:08.083Z,1019.97
2016-10-18T09:50:08.112Z,1019.97
2016-10-18T09:51:08.130Z,1020.01
2016-10-18T09:52:08.142Z,1020
2016-10-18T09:53:08.175Z,1019.97
2016-10-18T09:54:08.186Z,1019.98
2016-10-18T09:55:08.204Z,1020.01
2016-10-18T09:56:08.233Z,1020
2016-10-18T09:57:08.257Z,1020.01
2016-10-18T09:58:08.283Z,1020.02
2016-10-18T09:59:08.446Z,1020.01
2016-10-18T10:00:08.313Z,1020.01
2016-10-18T10:01:08.336Z,1019.98
2016-10-18T10:02:08.360Z,1020.05
2016-10-18T10:03:08.387Z,1020.04
2016-10-18T10:04:08.399Z,1020.05
2016-10-18T10:05:08.424Z,1020.05
2016-10-18T10:06:08.440Z,1020.06
2016-10-18T10:07:08.459Z,1020.11
2016-10-18T10:08:08.485Z,1020.07
2016-10-18T10:09:08.502Z,1020.07
2016-10-18T10:10:08.530Z,1020.04
2016-10-18T10:11:08.548Z,1020.07
2016-10-18T10:12:08.583Z,1020.05
2016-10-18T10:13:08.606Z,1019.99
2016-10-18T10:14:08.615Z,1020.01
2016-10-18T10:15:08.637Z,1020.01
2016-10-18T10:16:08.656Z,1019.93
2016-10-18T10:17:08.675Z,1019.95
2016-10-18T10:18:08.700Z,1019.93
2016-10-18T10:19:08.719Z,1019.91
2016-10-18T10:20:08.759Z,1019.92
2016-10-18T10:21:08.769Z,1019.93
2016-10-18T10:22:08.784Z,1019.92
2016-10-18T10:23:08.804Z,1019.86
2016-10-18T10:24:08.835Z,1019.91
2016-10-18T10:25:08.858Z,1019.92
2016-10-18T10:26:08.877Z,1019.86
2016-10-18T10:27:08.894Z,1019.92
2016-10-18T10:28:08.918Z,1019.88
2016-10-18T10:29:08.940Z,1019.93
2016-10-18T10:30:08.958Z,1019.89
2016-10-18T10:31:08.987Z,1019.91
2016-10-18T10:32:09.007Z,1019.92
2016-10-18T10:33:09.032Z,1019.94
2016-10-18T10:34:09.051Z,1019.93
2016-10-18T10:35:09.073Z,1019.97
2016-10-18T10:36:09.095Z,1019.91
2016-10-18T10:37:09.125Z,1019.88
2016-10-18T10:38:09.138Z,1019.93
2016-10-18T10:39:09.167Z,1019.99
2016-10-18T10:40:09.180Z,1019.92
2016-10-18T10:41:09.206Z,1019.91
2016-10-18T10:42:09.234Z,1019.99
2016-10-18T10:43:09.254Z,1019.92
2016-10-18T10:44:09.277Z,1019.94
2016-10-18T10:45:09.297Z,1019.86
2016-10-18T10:46:09.317Z,1019.93
2016-10-18T10:47:09.345Z,1019.91
2016-10-18T10:48:09.359Z,1019.92
2016-10-18T10:49:09.385Z,1019.87
2016-10-18T10:50:09.407Z,1019.89
2016-10-18T10:51:09.432Z,1019.89
2016-10-18T10:52:09.454Z,1019.87
2016-10-18T10:53:09.475Z,1019.87
2016-10-18T10:54:09.506Z,1019.81
2016-10-18T10:55:09.524Z,1019.82
2016-10-18T10:56:09.547Z,1019.84
2016-10-18T10:57:09.576Z,1019.78
2016-10-18T10:58:09.596Z,1019.8
2016-10-18T10:59:09.621Z,1019.78
2016-10-18T11:00:09.635Z,1019.78
2016-10-18T11:01:09.662Z,1019.75
2016-10-18T11:02:09.684Z,1019.77
2016-10-18T11:03:09.701Z,1019.75
2016-10-18T11:04:09.728Z,1019.74
2016-10-18T11:05:09.749Z,1019.77
2016-10-18T11:06:09.774Z,1019.7
2016-10-18T11:07:09.796Z,1019.71
2016-10-18T11:08:09.812Z,1019.68
2016-10-18T11:09:09.896Z,1019.66
2016-10-18T11:10:09.862Z,1019.74
2016-10-18T11:11:09.890Z,1019.67
2016-10-18T11:12:09.910Z,1019.65
2016-10-18T11:13:09.927Z,1019.68
2016-10-18T11:14:09.950Z,1019.63
2016-10-18T11:15:09.977Z,1019.65
2016-10-18T11:16:10.000Z,1019.65
2016-10-18T11:17:10.024Z,1019.63
2016-10-18T11:18:10.039Z,1019.63
2016-10-18T11:19:10.064Z,1019.63
2016-10-18T11:20:10.094Z,1019.61
2016-10-18T11:21:10.114Z,1019.6
2016-10-18T11:22:10.134Z,1019.55
2016-10-18T11:23:10.156Z,1019.56
2016-10-18T11:24:10.186Z,1019.5
2016-10-18T11:25:10.206Z,1019.54
2016-10-18T11:26:10.225Z,1019.58
2016-10-18T11:27:10.249Z,1019.54
2016-10-18T11:28:10.281Z,1019.47
2016-10-18T11:29:10.293Z,1019.5
2016-10-18T11:30:10.314Z,1019.46
2016-10-18T11:31:10.338Z,1019.47
2016-10-18T11:32:10.364Z,1019.48
2016-10-18T11:33:10.386Z,1019.47
2016-10-18T11:34:10.407Z,1019.5
2016-10-18T11:35:10.439Z,1019.51
2016-10-18T11:36:10.449Z,1019.54
2016-10-18T11:37:10.475Z,1019.47
2016-10-18T11:38:10.504Z,1019.45
2016-10-18T11:39:10.518Z,1019.47
2016-10-18T11:40:10.546Z,1019.51
2016-10-18T11:41:10.565Z,1019.44
2016-10-18T11:42:10.593Z,1019.43
2016-10-18T11:43:10.612Z,1019.44
2016-10-18T11:44:10.643Z,1019.45
2016-10-18T11:45:10.662Z,1019.43
2016-10-18T11:46:10.720Z,1019.4
2016-10-18T11:47:10.713Z,1019.36
2016-10-18T11:48:10.735Z,1019.34
2016-10-18T11:49:10.754Z,1019.34
2016-10-18T11:50:10.784Z,1019.3
2016-10-18T11:51:10.805Z,1019.3
2016-10-18T11:52:10.824Z,1019.28
2016-10-18T11:53:10.845Z,1019.26
2016-10-18T11:54:10.870Z,1019.25
2016-10-18T11:55:10.895Z,1019.26
2016-10-18T11:56:10.965Z,1019.23
2016-10-18T11:57:10.938Z,1019.27
2016-10-18T11:58:10.965Z,1019.27
2016-10-18T11:59:10.987Z,1019.25
2016-10-18T12:00:11.008Z,1019.24
2016-10-18T12:01:11.032Z,1019.22
2016-10-18T12:02:11.060Z,1019.14
2016-10-18T12:03:11.082Z,1019.11
2016-10-18T12:04:11.119Z,1019.13
2016-10-18T12:05:11.130Z,1019.12
2016-10-18T12:06:11.154Z,1019.05
2016-10-18T12:07:11.184Z,1019.06
2016-10-18T12:08:11.198Z,1019.06
2016-10-18T12:09:11.228Z,1019.07